createdAt,value
2022-12-14T00:00:16.042Z,44.43
2022-12-14T00:02:46.652Z,44.39
2022-12-14T00:05:20.386Z,44.56
2022-12-14T00:07:50.672Z,44.60
2022-12-14T00:10:22.870Z,44.47
2022-12-14T00:12:53.501Z,44.75
2022-12-14T00:15:26.156Z,44.50
2022-12-14T00:17:56.221Z,44.65
2022-12-14T00:20:27.840Z,44.79
2022-12-14T00:22:58.940Z,44.60
2022-12-14T00:25:31.533Z,44.51
2022-12-14T00:28:02.177Z,44.80
2022-12-14T00:30:32.314Z,44.58
2022-12-14T00:33:03.301Z,44.46
2022-12-14T00:35:34.009Z,44.64
2022-12-14T00:38:04.882Z,44.78
2022-12-14T00:40:37.020Z,44.62
2022-12-14T00:43:20.244Z,44.65
2022-12-14T00:45:51.105Z,44.79
2022-12-14T00:48:24.325Z,44.74
2022-12-14T00:50:57.532Z,44.50
2022-12-14T00:53:28.412Z,44.49
2022-12-14T00:56:07.927Z,44.91
2022-12-14T00:58:38.616Z,44.61
2022-12-14T01:01:13.475Z,44.67
2022-12-14T01:03:44.040Z,44.70
2022-12-14T01:06:19.094Z,44.62
2022-12-14T01:08:49.781Z,44.83
2022-12-14T01:11:21.717Z,44.80
2022-12-14T01:13:51.724Z,45.01
2022-12-14T01:16:22.601Z,45.04
2022-12-14T01:18:53.055Z,44.91
2022-12-14T01:21:26.450Z,44.76
2022-12-14T01:23:59.783Z,44.65
2022-12-14T01:26:36.130Z,45.27
2022-12-14T01:29:07.298Z,45.17
2022-12-14T01:31:39.770Z,45.18
2022-12-14T01:34:10.582Z,45.38
2022-12-14T01:36:42.083Z,45.25
2022-12-14T01:39:16.779Z,45.16
2022-12-14T01:41:53.674Z,45.57
2022-12-14T01:44:59.683Z,45.17
2022-12-14T01:47:42.639Z,45.40
2022-12-14T01:50:23.262Z,45.61
2022-12-14T01:52:58.921Z,45.48
2022-12-14T01:55:35.720Z,45.45
2022-12-14T01:58:18.036Z,45.59
2022-12-14T02:00:48.720Z,45.91
2022-12-14T02:03:22.787Z,45.83
2022-12-14T02:05:59.047Z,45.66
2022-12-14T02:08:30.854Z,45.93
2022-12-14T02:11:02.917Z,45.67
2022-12-14T02:13:39.305Z,45.97
2022-12-14T02:16:11.024Z,46.03
2022-12-14T02:18:41.083Z,46.23
2022-12-14T02:21:28.320Z,45.86
2022-12-14T02:25:03.164Z,46.06
2022-12-14T02:28:06.628Z,46.30
2022-12-14T02:30:43.188Z,46.21
2022-12-14T02:33:35.954Z,46.17
2022-12-14T02:36:20.711Z,46.27
2022-12-14T02:39:05.773Z,46.33
2022-12-14T02:41:47.226Z,46.46
2022-12-14T02:44:34.489Z,46.15
2022-12-14T02:47:14.881Z,46.40
2022-12-14T02:50:04.880Z,46.33
2022-12-14T02:52:48.776Z,46.31
2022-12-14T02:55:26.874Z,46.44
2022-12-14T02:58:04.617Z,46.60
2022-12-14T03:00:40.004Z,46.21
2022-12-14T03:03:12.557Z,46.34
2022-12-14T03:05:43.314Z,46.67
2022-12-14T03:08:19.325Z,46.50
2022-12-14T03:10:56.866Z,46.24
2022-12-14T03:13:33.286Z,46.42
2022-12-14T03:16:11.000Z,46.51
2022-12-14T03:18:53.027Z,46.38
2022-12-14T03:21:30.418Z,46.53
2022-12-14T03:24:05.143Z,46.52
2022-12-14T03:26:47.432Z,46.46
2022-12-14T03:29:25.732Z,46.35
2022-12-14T03:32:00.026Z,46.48
2022-12-14T03:34:41.010Z,46.48
2022-12-14T03:37:19.363Z,46.64
2022-12-14T03:39:51.461Z,46.83
2022-12-14T03:42:28.079Z,46.73
2022-12-14T03:45:07.426Z,46.65
2022-12-14T03:48:04.350Z,46.52
2022-12-14T03:50:48.172Z,46.55
2022-12-14T03:53:26.891Z,46.61
2022-12-14T03:56:08.840Z,46.41
2022-12-14T03:58:56.899Z,46.63
2022-12-14T04:01:41.248Z,46.51
2022-12-14T04:04:17.410Z,47.02
2022-12-14T04:07:01.521Z,46.92
2022-12-14T04:09:42.825Z,46.84
2022-12-14T04:12:36.838Z,46.90
2022-12-14T04:15:27.028Z,46.85
2022-12-14T04:18:21.038Z,47.06
2022-12-14T04:20:58.672Z,47.12
2022-12-14T04:23:56.727Z,47.16
2022-12-14T04:26:40.166Z,46.71
2022-12-14T04:29:32.754Z,47.27
2022-12-14T04:32:09.951Z,47.25
2022-12-14T04:34:43.901Z,47.02
2022-12-14T04:37:19.676Z,46.98
2022-12-14T04:39:56.329Z,47.35
2022-12-14T04:42:33.243Z,47.30
2022-12-14T04:45:12.732Z,47.12
2022-12-14T04:47:52.731Z,47.29
2022-12-14T04:50:31.231Z,47.16
2022-12-14T04:53:11.341Z,46.98
2022-12-14T04:55:51.785Z,47.16
2022-12-14T04:58:27.115Z,47.24
2022-12-14T05:01:19.409Z,47.08
2022-12-14T05:04:12.139Z,47.15
2022-12-14T05:06:57.368Z,47.62
2022-12-14T05:09:32.908Z,47.43
2022-12-14T05:12:15.381Z,47.38
2022-12-14T05:14:50.997Z,47.71
2022-12-14T05:17:22.443Z,47.56
2022-12-14T05:19:54.677Z,47.70
2022-12-14T05:22:25.605Z,47.48
2022-12-14T05:24:55.665Z,47.41
2022-12-14T05:27:28.634Z,47.83
2022-12-14T05:30:00.328Z,47.94
2022-12-14T05:32:31.826Z,47.40
2022-12-14T05:35:02.326Z,47.50
2022-12-14T05:37:33.058Z,47.67
2022-12-14T05:40:02.747Z,47.91
2022-12-14T05:42:38.259Z,47.47
2022-12-14T05:45:15.179Z,47.67
2022-12-14T05:47:45.586Z,47.91
2022-12-14T05:50:16.384Z,47.98
2022-12-14T05:52:46.974Z,47.71
2022-12-14T05:55:17.796Z,48.17
2022-12-14T05:57:50.468Z,48.03
2022-12-14T06:00:22.213Z,47.78
2022-12-14T06:02:53.265Z,48.24
2022-12-14T06:05:24.171Z,48.03
2022-12-14T06:07:54.656Z,48.19
2022-12-14T06:10:24.854Z,48.06
2022-12-14T06:12:59.853Z,47.84
2022-12-14T06:15:33.934Z,48.03
2022-12-14T06:18:04.658Z,48.30
2022-12-14T06:20:35.181Z,48.04
2022-12-14T06:23:06.098Z,48.21
2022-12-14T06:25:36.471Z,48.08
2022-12-14T06:28:09.404Z,48.33
2022-12-14T06:30:39.745Z,48.44
2022-12-14T06:33:10.598Z,48.36
2022-12-14T06:35:45.951Z,48.20
2022-12-14T06:38:17.565Z,47.97
2022-12-14T06:40:48.835Z,48.40
2022-12-14T06:43:21.804Z,48.31
2022-12-14T06:45:54.087Z,48.53
2022-12-14T06:48:24.730Z,48.21
2022-12-14T06:50:55.867Z,48.23
2022-12-14T06:53:27.102Z,48.24
2022-12-14T06:55:57.928Z,48.35
2022-12-14T06:58:32.612Z,48.44
2022-12-14T07:01:05.835Z,48.35
2022-12-14T07:03:37.318Z,48.35
2022-12-14T07:06:09.803Z,48.34
2022-12-14T07:08:41.589Z,48.42
2022-12-14T07:11:15.079Z,48.45
2022-12-14T07:13:49.175Z,48.20
2022-12-14T07:16:22.941Z,48.96
2022-12-14T07:18:53.851Z,48.26
2022-12-14T07:21:25.685Z,48.42
2022-12-14T07:23:56.821Z,48.52
2022-12-14T07:26:31.244Z,48.50
2022-12-14T07:29:07.119Z,48.54
2022-12-14T07:31:37.256Z,48.63
2022-12-14T07:34:09.618Z,48.55
2022-12-14T07:36:40.304Z,48.52
2022-12-14T07:39:13.322Z,48.82
2022-12-14T07:41:44.361Z,48.70
2022-12-14T07:44:17.714Z,48.96
2022-12-14T07:46:47.951Z,49.12
2022-12-14T07:49:18.813Z,49.41
2022-12-14T07:51:49.031Z,49.19
2022-12-14T07:54:19.630Z,49.15
2022-12-14T07:56:51.625Z,48.91
2022-12-14T07:59:23.793Z,49.26
2022-12-14T08:01:56.489Z,49.16
2022-12-14T08:04:30.606Z,49.02
2022-12-14T08:07:00.742Z,49.02
2022-12-14T08:09:30.531Z,48.81
2022-12-14T08:12:00.727Z,49.75
2022-12-14T08:14:33.168Z,50.41
2022-12-14T08:17:04.578Z,50.98
2022-12-14T08:19:34.842Z,51.86
2022-12-14T08:22:08.116Z,51.67
2022-12-14T08:24:38.935Z,51.77
2022-12-14T08:27:10.408Z,52.12
2022-12-14T08:29:43.043Z,52.19
2022-12-14T08:32:13.031Z,52.59
2022-12-14T08:34:43.808Z,51.81
2022-12-14T08:37:14.630Z,50.30
2022-12-14T08:39:47.730Z,49.94
2022-12-14T08:42:20.515Z,49.42
2022-12-14T08:44:52.598Z,48.79
2022-12-14T08:47:22.606Z,48.17
2022-12-14T08:50:02.012Z,48.42
2022-12-14T08:52:32.639Z,47.99
2022-12-14T08:55:03.401Z,47.47
2022-12-14T08:57:34.263Z,47.37
2022-12-14T09:00:09.322Z,47.13
2022-12-14T09:02:40.786Z,47.01
2022-12-14T09:05:12.879Z,46.82
2022-12-14T09:07:43.236Z,47.25
2022-12-14T09:10:14.172Z,47.25
2022-12-14T09:12:44.322Z,46.82
2022-12-14T09:15:17.445Z,46.85
2022-12-14T09:17:47.801Z,46.81
2022-12-14T09:20:17.603Z,46.83
2022-12-14T09:22:47.793Z,46.91
2022-12-14T09:25:18.632Z,46.54
2022-12-14T09:27:49.176Z,46.64
2022-12-14T09:30:26.657Z,47.05
2022-12-14T09:32:58.392Z,46.87
2022-12-14T09:35:31.547Z,47.00
2022-12-14T09:38:03.961Z,46.48
2022-12-14T09:40:36.630Z,46.52
2022-12-14T09:43:12.308Z,46.14
2022-12-14T09:45:55.034Z,45.80
2022-12-14T09:48:29.110Z,46.14
2022-12-14T09:51:00.042Z,45.76
2022-12-14T09:53:31.090Z,46.13
2022-12-14T09:56:03.420Z,45.63
2022-12-14T09:58:35.232Z,45.93
2022-12-14T10:01:40.030Z,45.73
2022-12-14T10:04:26.139Z,45.55
2022-12-14T10:07:09.799Z,45.23
2022-12-14T10:09:49.718Z,45.15
2022-12-14T10:12:40.788Z,45.01
2022-12-14T10:15:26.828Z,45.09
2022-12-14T10:18:59.702Z,45.04
2022-12-14T10:21:46.785Z,45.13
2022-12-14T10:24:26.427Z,44.63
2022-12-14T10:26:59.075Z,44.98
2022-12-14T10:29:34.827Z,44.84
2022-12-14T10:32:21.966Z,44.85
2022-12-14T10:34:54.370Z,44.85
2022-12-14T10:37:30.471Z,44.47
2022-12-14T10:40:33.237Z,44.96
2022-12-14T10:43:46.792Z,44.65
2022-12-14T10:46:29.847Z,44.43
2022-12-14T10:49:11.937Z,44.64
2022-12-14T10:51:50.036Z,44.52
2022-12-14T10:54:31.697Z,44.73
2022-12-14T10:57:02.775Z,44.24
2022-12-14T10:59:42.378Z,44.31
2022-12-14T11:02:25.571Z,44.29
2022-12-14T11:05:00.750Z,44.51
2022-12-14T11:07:46.129Z,44.11
2022-12-14T11:10:21.462Z,44.37
2022-12-14T11:13:06.160Z,44.17
2022-12-14T11:15:39.107Z,44.20
2022-12-14T11:18:32.464Z,44.37
2022-12-14T11:21:06.935Z,43.83
2022-12-14T11:23:45.110Z,44.15
2022-12-14T11:26:31.149Z,44.02
2022-12-14T11:29:05.540Z,43.90
2022-12-14T11:31:42.229Z,44.03
2022-12-14T11:34:31.491Z,43.72
2022-12-14T11:37:17.494Z,43.72
2022-12-14T11:39:54.297Z,44.16
2022-12-14T11:42:26.354Z,43.83
2022-12-14T11:44:57.738Z,44.09
2022-12-14T11:47:29.825Z,44.01
2022-12-14T11:50:00.894Z,43.49
2022-12-14T11:52:45.353Z,43.81
2022-12-14T11:55:27.240Z,43.69
2022-12-14T11:58:01.920Z,43.95
2022-12-14T12:00:49.141Z,43.52
2022-12-14T12:03:41.810Z,44.05
2022-12-14T12:06:16.272Z,44.10
2022-12-14T12:08:48.603Z,43.80
2022-12-14T12:11:24.041Z,44.12
2022-12-14T12:14:02.153Z,44.22
2022-12-14T12:16:36.069Z,43.80
2022-12-14T12:19:14.608Z,43.72
2022-12-14T12:21:47.877Z,43.95
2022-12-14T12:24:25.647Z,43.68
2022-12-14T12:27:01.312Z,43.84
2022-12-14T12:29:39.293Z,43.87
2022-12-14T12:32:15.454Z,43.57
2022-12-14T12:34:54.847Z,43.71
2022-12-14T12:37:45.365Z,44.17
2022-12-14T12:40:24.369Z,43.80
2022-12-14T12:43:07.343Z,44.06
2022-12-14T12:45:47.086Z,43.89
2022-12-14T12:48:25.882Z,44.11
2022-12-14T12:51:02.608Z,43.79
2022-12-14T12:53:41.282Z,43.67
2022-12-14T12:56:20.130Z,43.77
2022-12-14T12:58:55.353Z,44.09
2022-12-14T13:01:34.618Z,43.98
2022-12-14T13:04:08.166Z,43.89
2022-12-14T13:06:46.683Z,44.10
2022-12-14T13:09:37.328Z,43.97
2022-12-14T13:12:18.615Z,43.81
2022-12-14T13:14:53.286Z,43.73
2022-12-14T13:17:33.639Z,44.07
2022-12-14T13:20:09.202Z,43.91
2022-12-14T13:22:42.934Z,43.96
2022-12-14T13:25:24.473Z,43.80
2022-12-14T13:28:22.942Z,43.92
2022-12-14T13:31:22.830Z,44.02
2022-12-14T13:34:19.651Z,44.04
2022-12-14T13:37:27.812Z,43.79
2022-12-14T13:40:47.579Z,44.20
2022-12-14T13:43:47.395Z,44.02
2022-12-14T13:46:27.858Z,44.00
2022-12-14T13:49:03.408Z,44.09
2022-12-14T13:51:40.935Z,44.09
2022-12-14T13:54:28.124Z,43.88
2022-12-14T13:57:08.803Z,43.95
2022-12-14T13:59:45.289Z,44.21
2022-12-14T14:02:56.157Z,44.02
2022-12-14T14:05:48.493Z,44.15
2022-12-14T14:08:39.508Z,44.19
2022-12-14T14:12:05.125Z,44.24
2022-12-14T14:14:55.608Z,44.08
2022-12-14T14:17:32.687Z,44.44
2022-12-14T14:20:37.302Z,44.07
2022-12-14T14:23:41.083Z,44.30
2022-12-14T14:26:31.875Z,44.13
2022-12-14T14:29:28.956Z,44.25
2022-12-14T14:32:04.720Z,44.25
2022-12-14T14:34:50.131Z,44.32
2022-12-14T14:37:44.200Z,44.19
2022-12-14T14:41:06.343Z,43.95
2022-12-14T14:43:34.236Z,44.26
2022-12-14T14:46:08.868Z,44.11
2022-12-14T14:48:44.673Z,44.23
2022-12-14T14:51:23.854Z,44.22
2022-12-14T14:55:21.276Z,44.02
2022-12-14T14:57:57.280Z,44.09
2022-12-14T15:00:28.155Z,44.36
2022-12-14T15:03:02.122Z,44.17
2022-12-14T15:05:42.388Z,44.05
2022-12-14T15:08:23.957Z,44.24
2022-12-14T15:10:58.080Z,44.20
2022-12-14T15:13:35.511Z,44.24
2022-12-14T15:16:27.241Z,44.21
2022-12-14T15:18:58.421Z,44.04
2022-12-14T15:21:29.318Z,44.18
2022-12-14T15:24:00.037Z,44.26
2022-12-14T15:26:35.893Z,43.82
2022-12-14T15:29:06.795Z,44.13
2022-12-14T15:31:42.471Z,44.16
2022-12-14T15:34:21.083Z,44.04
2022-12-14T15:36:53.550Z,43.91
2022-12-14T15:39:40.483Z,44.21
2022-12-14T15:42:21.280Z,44.07
2022-12-14T15:44:56.119Z,44.02
2022-12-14T15:47:32.655Z,43.93
2022-12-14T15:50:20.164Z,44.14
2022-12-14T15:53:01.841Z,43.99
2022-12-14T15:55:38.205Z,43.97
2022-12-14T15:58:21.874Z,44.17
2022-12-14T16:00:55.481Z,44.06
2022-12-14T16:03:34.940Z,44.12
2022-12-14T16:06:07.041Z,44.11
2022-12-14T16:08:42.172Z,44.05
2022-12-14T16:11:26.618Z,43.99
2022-12-14T16:14:03.989Z,44.27
2022-12-14T16:16:35.309Z,44.14
2022-12-14T16:19:26.384Z,44.09
2022-12-14T16:22:23.760Z,44.20
2022-12-14T16:25:19.454Z,44.06
2022-12-14T16:27:52.427Z,44.59
2022-12-14T16:30:30.279Z,44.08
2022-12-14T16:33:22.997Z,44.41
2022-12-14T16:36:09.144Z,44.23
2022-12-14T16:38:56.428Z,44.20
2022-12-14T16:41:38.782Z,44.19
2022-12-14T16:44:21.643Z,44.24
2022-12-14T16:47:43.146Z,44.17
2022-12-14T16:50:55.061Z,44.19
2022-12-14T16:53:24.927Z,44.24
2022-12-14T16:56:08.619Z,44.40
2022-12-14T16:58:41.026Z,44.41
2022-12-14T17:01:13.568Z,44.23
2022-12-14T17:03:46.570Z,44.27
2022-12-14T17:06:27.594Z,44.18
2022-12-14T17:08:58.335Z,44.19
2022-12-14T17:11:31.337Z,44.22
2022-12-14T17:14:02.128Z,44.12
2022-12-14T17:16:32.349Z,44.11
2022-12-14T17:19:06.296Z,44.30
2022-12-14T17:21:38.027Z,44.17
2022-12-14T17:24:09.085Z,44.25
2022-12-14T17:26:39.726Z,44.24
2022-12-14T17:29:18.940Z,44.34
2022-12-14T17:31:50.603Z,44.28
2022-12-14T17:34:23.046Z,44.28
2022-12-14T17:36:54.205Z,44.20
2022-12-14T17:39:25.610Z,44.13
2022-12-14T17:41:56.158Z,44.43
2022-12-14T17:44:26.219Z,44.35
2022-12-14T17:46:56.642Z,44.41
2022-12-14T17:49:35.845Z,44.37
2022-12-14T17:52:09.811Z,44.40
2022-12-14T17:54:40.480Z,44.38
2022-12-14T17:57:17.903Z,44.45
2022-12-14T17:59:49.275Z,44.58
2022-12-14T18:02:30.353Z,44.38
2022-12-14T18:05:03.093Z,44.40
2022-12-14T18:07:34.026Z,44.39
2022-12-14T18:10:04.854Z,44.48
2022-12-14T18:12:34.893Z,44.57
2022-12-14T18:15:05.412Z,44.35
2022-12-14T18:17:35.880Z,44.36
2022-12-14T18:20:10.646Z,44.47
2022-12-14T18:22:41.616Z,44.54
2022-12-14T18:25:39.823Z,44.45
2022-12-14T18:28:22.896Z,44.31
2022-12-14T18:30:59.852Z,44.36
2022-12-14T18:33:32.359Z,44.40
2022-12-14T18:36:04.885Z,43.96
2022-12-14T18:38:35.687Z,44.24
2022-12-14T18:41:05.828Z,44.40
2022-12-14T18:43:43.212Z,44.32
2022-12-14T18:46:14.050Z,44.37
2022-12-14T18:48:45.821Z,44.31
2022-12-14T18:51:23.912Z,44.05
2022-12-14T18:53:54.546Z,43.85
2022-12-14T18:56:28.881Z,44.13
2022-12-14T18:59:00.947Z,44.19
2022-12-14T19:01:30.777Z,44.28
2022-12-14T19:04:01.483Z,44.29
2022-12-14T19:06:48.696Z,44.20
2022-12-14T19:09:18.963Z,44.27
2022-12-14T19:11:50.605Z,44.13
2022-12-14T19:14:20.508Z,44.15
2022-12-14T19:16:50.628Z,44.28
2022-12-14T19:19:24.060Z,44.21
2022-12-14T19:21:57.664Z,44.10
2022-12-14T19:24:29.013Z,44.05
2022-12-14T19:26:59.172Z,44.07
2022-12-14T19:29:31.302Z,44.11
2022-12-14T19:32:05.649Z,44.18
2022-12-14T19:34:36.976Z,44.19
2022-12-14T19:37:08.867Z,44.21
2022-12-14T19:39:39.093Z,44.19
2022-12-14T19:42:11.689Z,44.13
2022-12-14T19:44:42.352Z,44.25
2022-12-14T19:47:12.655Z,44.19
2022-12-14T19:49:43.733Z,44.15
2022-12-14T19:52:16.749Z,43.98
2022-12-14T19:54:47.490Z,44.15
2022-12-14T19:57:18.144Z,43.89
2022-12-14T19:59:48.848Z,44.04
2022-12-14T20:02:19.499Z,44.13
2022-12-14T20:04:50.218Z,43.93
2022-12-14T20:07:22.777Z,43.91
2022-12-14T20:09:53.506Z,44.09
2022-12-14T20:12:24.119Z,44.12
2022-12-14T20:14:54.441Z,43.92
2022-12-14T20:17:26.304Z,44.19
2022-12-14T20:19:58.728Z,44.02
2022-12-14T20:22:31.019Z,44.09
2022-12-14T20:25:02.149Z,44.38
2022-12-14T20:27:38.895Z,43.81
2022-12-14T20:30:13.111Z,44.03
2022-12-14T20:32:49.142Z,44.21
2022-12-14T20:35:20.799Z,44.26
2022-12-14T20:37:56.419Z,44.18
2022-12-14T20:40:27.088Z,44.25
2022-12-14T20:42:57.770Z,44.29
2022-12-14T20:45:28.366Z,44.27
2022-12-14T20:47:59.204Z,44.11
2022-12-14T20:50:31.025Z,43.96
2022-12-14T20:53:03.605Z,44.11
2022-12-14T20:55:33.370Z,44.34
2022-12-14T20:58:04.898Z,44.23
2022-12-14T21:00:35.281Z,44.03
2022-12-14T21:03:06.820Z,44.18
2022-12-14T21:05:42.289Z,44.13
2022-12-14T21:08:16.284Z,43.84
2022-12-14T21:10:47.133Z,43.82
2022-12-14T21:13:15.845Z,44.07
2022-12-14T21:15:46.508Z,44.14
2022-12-14T21:18:17.353Z,44.28
2022-12-14T21:20:49.122Z,44.00
2022-12-14T21:23:21.427Z,44.32
2022-12-14T21:25:52.382Z,43.91
2022-12-14T21:28:26.186Z,43.95
2022-12-14T21:31:06.001Z,43.93
2022-12-14T21:33:37.666Z,44.04
2022-12-14T21:36:09.351Z,43.69
2022-12-14T21:38:41.843Z,43.81
2022-12-14T21:41:30.739Z,44.27
2022-12-14T21:44:02.940Z,43.84
2022-12-14T21:46:33.034Z,43.74
2022-12-14T21:49:03.452Z,43.94
2022-12-14T21:51:33.908Z,43.87
2022-12-14T21:54:06.883Z,43.83
2022-12-14T21:56:55.746Z,43.88
2022-12-14T21:59:29.582Z,43.87
2022-12-14T22:02:03.055Z,44.04
2022-12-14T22:04:39.577Z,43.67
2022-12-14T22:07:10.850Z,43.81
2022-12-14T22:09:42.814Z,43.56
2022-12-14T22:12:15.010Z,43.64
2022-12-14T22:14:45.807Z,43.65
2022-12-14T22:17:16.492Z,43.92
2022-12-14T22:19:47.113Z,43.72
2022-12-14T22:22:19.597Z,43.65
2022-12-14T22:24:53.093Z,43.75
2022-12-14T22:27:23.960Z,43.73
2022-12-14T22:29:54.102Z,43.76
2022-12-14T22:32:24.265Z,43.76
2022-12-14T22:35:21.094Z,43.74
2022-12-14T22:37:51.798Z,43.75
2022-12-14T22:40:24.315Z,43.62
2022-12-14T22:42:55.202Z,43.80
2022-12-14T22:45:24.980Z,43.65
2022-12-14T22:47:56.205Z,43.97
2022-12-14T22:50:26.449Z,43.57
2022-12-14T22:52:57.227Z,43.53
2022-12-14T22:55:35.271Z,43.38
2022-12-14T22:58:07.222Z,43.74
2022-12-14T23:00:37.951Z,43.39
2022-12-14T23:03:08.636Z,43.44
2022-12-14T23:05:40.628Z,43.53
2022-12-14T23:08:11.372Z,43.71
2022-12-14T23:11:00.073Z,43.56
2022-12-14T23:13:47.269Z,43.35
2022-12-14T23:16:33.994Z,43.57
2022-12-14T23:19:20.990Z,43.23
2022-12-14T23:22:07.950Z,43.43
2022-12-14T23:24:55.138Z,43.38
2022-12-14T23:27:44.709Z,43.31
2022-12-14T23:30:32.328Z,43.42
2022-12-14T23:33:19.320Z,43.34
2022-12-14T23:36:06.451Z,43.46
2022-12-14T23:38:53.435Z,43.64
2022-12-14T23:41:40.209Z,43.34
2022-12-14T23:44:29.940Z,43.22
2022-12-14T23:47:16.952Z,43.29
2022-12-14T23:50:03.851Z,43.27
2022-12-14T23:52:51.015Z,43.32
2022-12-14T23:55:38.120Z,43.19
2022-12-14T23:58:25.264Z,42.96
